createdAt,value
2019-04-04T00:01:34.967Z,42.34
2019-04-04T00:04:04.763Z,42.10
2019-04-04T00:06:34.511Z,42.13
2019-04-04T00:09:05.518Z,42.22
2019-04-04T00:11:36.925Z,42.50
2019-04-04T00:14:06.720Z,42.76
2019-04-04T00:16:36.569Z,42.50
2019-04-04T00:19:06.303Z,42.88
2019-04-04T00:21:35.980Z,42.88
2019-04-04T00:24:07.086Z,42.61
2019-04-04T00:26:37.398Z,42.80
2019-04-04T00:29:07.087Z,42.70
2019-04-04T00:31:36.595Z,42.80
2019-04-04T00:34:06.381Z,42.96
2019-04-04T00:36:36.252Z,43.59
2019-04-04T00:39:09.450Z,43.68
2019-04-04T00:41:39.276Z,43.68
2019-04-04T00:44:09.128Z,43.85
2019-04-04T00:46:38.948Z,43.79
2019-04-04T00:49:08.674Z,44.13
2019-04-04T00:51:39.020Z,44.86
2019-04-04T00:54:09.450Z,44.86
2019-04-04T00:56:38.980Z,44.94
2019-04-04T00:59:08.768Z,45.50
2019-04-04T01:01:38.463Z,45.69
2019-04-04T01:04:09.148Z,45.51
2019-04-04T01:06:39.009Z,46.13
2019-04-04T01:09:13.167Z,45.95
2019-04-04T01:11:40.406Z,45.95
2019-04-04T01:14:10.237Z,45.85
2019-04-04T01:16:39.927Z,46.06
2019-04-04T01:19:10.332Z,46.15
2019-04-04T01:21:40.111Z,46.43
2019-04-04T01:24:09.803Z,46.62
2019-04-04T01:26:39.557Z,46.63
2019-04-04T01:29:10.932Z,47.07
2019-04-04T01:31:40.770Z,47.25
2019-04-04T01:34:10.570Z,47.50
2019-04-04T01:36:40.348Z,47.90
2019-04-04T01:39:10.282Z,47.91
2019-04-04T01:41:39.847Z,48.18
2019-04-04T01:44:11.377Z,48.48
2019-04-04T01:46:40.923Z,48.83
2019-04-04T01:49:10.559Z,49.59
2019-04-04T01:51:40.175Z,49.27
2019-04-04T01:54:09.656Z,49.54
2019-04-04T01:56:39.274Z,49.99
2019-04-04T01:59:10.230Z,50.80
2019-04-04T02:01:40.221Z,51.19
2019-04-04T02:04:09.890Z,51.47
2019-04-04T02:06:39.557Z,52.10
2019-04-04T02:09:09.402Z,52.26
2019-04-04T02:11:38.831Z,52.61
2019-04-04T02:14:09.898Z,52.59
2019-04-04T02:16:39.836Z,52.68
2019-04-04T02:19:09.523Z,52.87
2019-04-04T02:21:39.308Z,53.04
2019-04-04T02:24:09.040Z,53.01
2019-04-04T02:26:38.607Z,52.80
2019-04-04T02:29:10.707Z,52.92
2019-04-04T02:31:43.530Z,52.86
2019-04-04T02:34:13.156Z,52.92
2019-04-04T02:36:42.688Z,52.83
2019-04-04T02:39:15.612Z,52.67
2019-04-04T02:41:48.501Z,52.46
2019-04-04T02:44:16.617Z,52.14
2019-04-04T02:46:46.304Z,52.13
2019-04-04T02:49:15.943Z,52.37
2019-04-04T02:51:45.496Z,52.56
2019-04-04T02:54:15.177Z,52.89
2019-04-04T02:56:44.866Z,53.27
2019-04-04T02:59:20.367Z,53.38
2019-04-04T03:01:45.827Z,53.73
2019-04-04T03:04:15.722Z,53.91
2019-04-04T03:06:45.539Z,54.06
2019-04-04T03:09:15.079Z,54.08
2019-04-04T03:11:45.013Z,54.31
2019-04-04T03:14:14.788Z,54.42
2019-04-04T03:16:44.490Z,54.03
2019-04-04T03:19:14.217Z,54.06
2019-04-04T03:21:43.934Z,53.44
2019-04-04T03:24:13.713Z,53.34
2019-04-04T03:26:43.462Z,52.99
2019-04-04T03:29:13.082Z,52.60
2019-04-04T03:31:42.907Z,52.65
2019-04-04T03:34:13.271Z,52.69
2019-04-04T03:36:42.872Z,52.87
2019-04-04T03:39:12.539Z,53.22
2019-04-04T03:41:42.385Z,53.39
2019-04-04T03:44:12.107Z,53.35
2019-04-04T03:46:41.804Z,53.02
2019-04-04T03:49:11.471Z,52.64
2019-04-04T03:51:41.270Z,53.05
2019-04-04T03:54:16.934Z,52.89
2019-04-04T03:56:46.764Z,52.88
2019-04-04T03:59:16.363Z,52.94
2019-04-04T04:01:46.905Z,53.36
2019-04-04T04:04:16.743Z,53.63
2019-04-04T04:06:46.395Z,53.48
2019-04-04T04:09:15.953Z,53.58
2019-04-04T04:11:45.710Z,53.57
2019-04-04T04:14:15.429Z,53.84
2019-04-04T04:16:45.136Z,53.73
2019-04-04T04:19:14.827Z,54.10
2019-04-04T04:21:44.514Z,53.36
2019-04-04T04:24:14.410Z,53.91
2019-04-04T04:26:44.050Z,53.56
2019-04-04T04:29:13.812Z,53.44
2019-04-04T04:31:48.233Z,53.56
2019-04-04T04:34:14.917Z,53.63
2019-04-04T04:36:47.694Z,53.84
2019-04-04T04:39:15.897Z,53.97
2019-04-04T04:41:45.505Z,54.30
2019-04-04T04:44:15.056Z,54.31
2019-04-04T04:46:44.729Z,54.38
2019-04-04T04:49:14.372Z,54.78
2019-04-04T04:51:44.305Z,55.12
2019-04-04T04:54:14.171Z,55.09
2019-04-04T04:56:43.842Z,54.95
2019-04-04T04:59:13.940Z,55.20
2019-04-04T05:01:43.721Z,55.47
2019-04-04T05:04:13.303Z,55.46
2019-04-04T05:06:43.109Z,55.85
2019-04-04T05:09:14.160Z,55.72
2019-04-04T05:11:44.411Z,55.78
2019-04-04T05:14:14.028Z,55.56
2019-04-04T05:16:43.737Z,55.25
2019-04-04T05:19:13.577Z,55.83
2019-04-04T05:21:43.155Z,55.60
2019-04-04T05:24:13.016Z,55.92
2019-04-04T05:26:42.794Z,56.64
2019-04-04T05:29:13.984Z,56.22
2019-04-04T05:31:43.836Z,55.98
2019-04-04T05:34:13.617Z,55.76
2019-04-04T05:36:43.290Z,55.89
2019-04-04T05:39:13.027Z,55.56
2019-04-04T05:41:42.649Z,55.24
2019-04-04T05:44:12.407Z,54.86
2019-04-04T05:46:42.127Z,55.04
2019-04-04T05:49:11.780Z,54.71
2019-04-04T05:51:41.405Z,53.90
2019-04-04T05:54:11.186Z,52.93
2019-04-04T05:56:40.769Z,52.69
2019-04-04T05:59:10.286Z,52.69
2019-04-04T06:01:40.098Z,52.68
2019-04-04T06:04:09.813Z,52.52
2019-04-04T06:06:39.380Z,51.68
2019-04-04T06:09:09.409Z,50.65
2019-04-04T06:11:39.011Z,49.98
2019-04-04T06:14:08.662Z,49.44
2019-04-04T06:16:38.315Z,48.03
2019-04-04T06:19:07.974Z,46.98
2019-04-04T06:21:39.294Z,46.98
2019-04-04T06:24:08.988Z,46.63
2019-04-04T06:26:38.835Z,46.78
2019-04-04T06:29:08.531Z,47.26
2019-04-04T06:31:38.212Z,47.17
2019-04-04T06:34:10.051Z,46.41
2019-04-04T06:36:39.095Z,45.67
2019-04-04T06:39:09.096Z,45.60
2019-04-04T06:41:38.815Z,45.10
2019-04-04T06:44:08.704Z,44.54
2019-04-04T06:46:38.271Z,43.89
2019-04-04T06:49:08.050Z,43.78
2019-04-04T06:51:37.738Z,41.89
2019-04-04T06:54:07.485Z,41.52
2019-04-04T06:56:37.141Z,40.72
2019-04-04T06:59:06.785Z,35.99
2019-04-04T07:01:36.575Z,33.33
2019-04-04T07:04:06.048Z,29.88
2019-04-04T07:06:35.677Z,29.08
2019-04-04T07:09:06.416Z,28.72
2019-04-04T07:11:35.964Z,27.57
2019-04-04T07:14:05.859Z,27.76
2019-04-04T07:16:36.894Z,27.68
2019-04-04T07:19:08.087Z,28.55
2019-04-04T07:21:37.917Z,29.29
2019-04-04T07:24:07.627Z,30.45
2019-04-04T07:26:37.188Z,30.99
2019-04-04T07:29:06.843Z,30.31
2019-04-04T07:31:38.312Z,29.89
2019-04-04T07:34:07.981Z,29.64
2019-04-04T07:36:37.613Z,30.14
2019-04-04T07:39:07.683Z,30.22
2019-04-04T07:41:39.989Z,29.90
2019-04-04T07:44:08.717Z,30.50
2019-04-04T07:46:40.935Z,31.16
2019-04-04T07:49:09.830Z,30.82
2019-04-04T07:51:39.595Z,30.43
2019-04-04T07:54:09.279Z,31.29
2019-04-04T07:56:39.126Z,32.17
2019-04-04T07:59:08.793Z,32.94
2019-04-04T08:01:50.279Z,32.39
2019-04-04T08:04:09.732Z,33.33
2019-04-04T08:06:39.560Z,32.97
2019-04-04T08:09:09.233Z,32.81
2019-04-04T08:11:38.834Z,34.01
2019-04-04T08:14:08.341Z,33.51
2019-04-04T08:16:38.075Z,34.31
2019-04-04T08:19:07.839Z,33.94
2019-04-04T08:21:37.524Z,34.11
2019-04-04T08:24:07.294Z,34.03
2019-04-04T08:26:37.058Z,34.11
2019-04-04T08:29:06.846Z,34.63
2019-04-04T08:31:36.525Z,33.98
2019-04-04T08:34:06.672Z,34.54
2019-04-04T08:36:36.387Z,34.13
2019-04-04T08:39:10.322Z,33.77
2019-04-04T08:41:39.923Z,33.39
2019-04-04T08:44:09.727Z,32.41
2019-04-04T08:46:39.479Z,33.10
2019-04-04T08:49:09.124Z,31.58
2019-04-04T08:51:38.835Z,30.64
2019-04-04T08:54:08.613Z,30.07
2019-04-04T08:56:38.245Z,30.42
2019-04-04T08:59:07.859Z,31.42
2019-04-04T09:01:37.439Z,29.92
2019-04-04T09:04:07.109Z,30.43
2019-04-04T09:06:36.787Z,29.39
2019-04-04T09:09:07.946Z,27.83
2019-04-04T09:11:37.590Z,28.69
2019-04-04T09:14:07.249Z,27.20
2019-04-04T09:16:36.822Z,27.15
2019-04-04T09:19:06.535Z,27.11
2019-04-04T09:21:36.132Z,26.35
2019-04-04T09:24:05.689Z,26.89
2019-04-04T09:26:35.437Z,25.36
2019-04-04T09:29:05.093Z,25.19
2019-04-04T09:31:34.705Z,23.48
2019-04-04T09:34:04.272Z,19.90
2019-04-04T09:36:34.106Z,18.17
2019-04-04T09:39:06.984Z,15.53
2019-04-04T09:41:36.528Z,14.83
2019-04-04T09:44:06.377Z,12.83
2019-04-04T09:46:36.059Z,13.80
2019-04-04T09:49:05.859Z,13.45
2019-04-04T09:51:35.637Z,13.71
2019-04-04T09:54:05.460Z,14.10
2019-04-04T09:56:35.036Z,16.24
2019-04-04T09:59:04.779Z,16.74
2019-04-04T10:01:34.514Z,17.42
2019-04-04T10:04:04.205Z,17.75
2019-04-04T10:06:33.951Z,17.95
2019-04-04T10:09:14.974Z,17.76
2019-04-04T10:11:36.691Z,16.03
2019-04-04T10:14:06.317Z,15.42
2019-04-04T10:16:36.001Z,15.31
2019-04-04T10:19:05.695Z,14.26
2019-04-04T10:21:35.303Z,13.87
2019-04-04T10:24:04.993Z,12.90
2019-04-04T10:26:34.745Z,12.38
2019-04-04T10:29:04.416Z,12.17
2019-04-04T10:31:34.006Z,12.97
2019-04-04T10:34:03.710Z,11.65
2019-04-04T10:36:33.209Z,11.50
2019-04-04T10:39:04.914Z,10.93
2019-04-04T10:41:34.615Z,10.45
2019-04-04T10:44:04.369Z,11.15
2019-04-04T10:46:34.058Z,11.42
2019-04-04T10:49:03.924Z,12.46
2019-04-04T10:51:33.567Z,12.60
2019-04-04T10:54:03.235Z,14.06
2019-04-04T10:56:32.929Z,13.88
2019-04-04T10:59:02.737Z,13.81
2019-04-04T11:01:32.414Z,13.03
2019-04-04T11:04:02.096Z,12.92
2019-04-04T11:06:31.873Z,12.76
2019-04-04T11:09:01.450Z,13.57
2019-04-04T11:11:31.069Z,15.07
2019-04-04T11:14:00.619Z,14.78
2019-04-04T11:16:30.753Z,15.60
2019-04-04T11:19:00.335Z,15.54
2019-04-04T11:21:29.972Z,15.49
2019-04-04T11:23:59.607Z,16.03
2019-04-04T11:26:29.126Z,16.61
2019-04-04T11:28:58.916Z,18.26
2019-04-04T11:31:28.698Z,21.67
2019-04-04T11:33:58.282Z,20.16
2019-04-04T11:36:27.933Z,20.70
2019-04-04T11:38:57.666Z,21.55
2019-04-04T11:41:27.227Z,22.94
2019-04-04T11:43:56.905Z,23.21
2019-04-04T11:46:26.749Z,23.90
2019-04-04T11:48:56.357Z,26.25
2019-04-04T11:51:25.995Z,24.95
2019-04-04T11:53:55.579Z,26.19
2019-04-04T11:56:25.183Z,26.69
2019-04-04T11:58:54.900Z,26.15
2019-04-04T12:01:25.663Z,26.57
2019-04-04T12:03:55.440Z,26.66
2019-04-04T12:06:25.176Z,26.34
2019-04-04T12:08:54.637Z,26.24
2019-04-04T12:11:24.232Z,27.04
2019-04-04T12:13:53.847Z,26.84
2019-04-04T12:16:23.504Z,28.81
2019-04-04T12:18:53.148Z,28.72
2019-04-04T12:21:23.009Z,26.58
2019-04-04T12:23:52.641Z,26.59
2019-04-04T12:26:22.371Z,26.83
2019-04-04T12:28:51.960Z,28.09
2019-04-04T12:31:21.563Z,28.02
2019-04-04T12:33:51.283Z,27.09
2019-04-04T12:36:24.857Z,26.25
2019-04-04T12:38:53.324Z,26.62
2019-04-04T12:41:22.942Z,27.22
2019-04-04T12:43:52.706Z,27.35
2019-04-04T12:46:22.347Z,27.21
2019-04-04T12:48:51.957Z,27.05
2019-04-04T12:51:21.734Z,27.20
2019-04-04T12:53:51.385Z,27.45
2019-04-04T12:56:21.035Z,27.58
2019-04-04T12:58:50.627Z,27.20
2019-04-04T13:01:21.462Z,27.31
2019-04-04T13:03:51.240Z,27.31
2019-04-04T13:06:20.862Z,27.46
2019-04-04T13:08:50.641Z,27.31
2019-04-04T13:11:20.529Z,27.01
2019-04-04T13:13:50.143Z,26.85
2019-04-04T13:16:19.901Z,27.07
2019-04-04T13:18:49.561Z,26.95
2019-04-04T13:21:21.516Z,27.05
2019-04-04T13:23:50.804Z,27.30
2019-04-04T13:26:20.469Z,27.48
2019-04-04T13:28:50.136Z,27.32
2019-04-04T13:31:19.705Z,28.10
2019-04-04T13:33:49.642Z,27.57
2019-04-04T13:36:19.110Z,27.76
2019-04-04T13:38:48.701Z,27.98
2019-04-04T13:41:22.059Z,28.32
2019-04-04T13:43:51.470Z,28.68
2019-04-04T13:46:24.628Z,29.04
2019-04-04T13:48:52.419Z,29.21
2019-04-04T13:51:22.097Z,28.74
2019-04-04T13:53:51.712Z,27.62
2019-04-04T13:56:21.261Z,27.74
2019-04-04T13:58:50.962Z,29.03
2019-04-04T14:01:20.647Z,28.99
2019-04-04T14:03:50.527Z,29.34
2019-04-04T14:06:20.189Z,29.45
2019-04-04T14:08:49.715Z,29.62
2019-04-04T14:11:19.322Z,29.65
2019-04-04T14:13:49.631Z,30.11
2019-04-04T14:16:19.314Z,30.66
2019-04-04T14:18:49.154Z,30.67
2019-04-04T14:21:18.870Z,30.58
2019-04-04T14:23:52.072Z,31.49
2019-04-04T14:26:19.863Z,31.51
2019-04-04T14:28:49.696Z,31.53
2019-04-04T14:31:19.369Z,31.78
2019-04-04T14:33:49.093Z,31.89
2019-04-04T14:36:18.720Z,32.20
2019-04-04T14:38:48.347Z,31.97
2019-04-04T14:41:17.970Z,32.13
2019-04-04T14:43:48.604Z,32.34
2019-04-04T14:46:18.185Z,32.52
2019-04-04T14:48:47.959Z,32.62
2019-04-04T14:51:17.660Z,32.89
2019-04-04T14:53:47.374Z,33.04
2019-04-04T14:56:17.213Z,32.95
2019-04-04T14:58:46.841Z,32.84
2019-04-04T15:01:16.449Z,33.08
2019-04-04T15:03:46.124Z,32.99
2019-04-04T15:06:15.649Z,33.31
2019-04-04T15:08:45.364Z,33.66
2019-04-04T15:11:24.069Z,33.84
2019-04-04T15:13:46.307Z,33.81
2019-04-04T15:16:17.517Z,33.89
2019-04-04T15:18:47.211Z,34.03
2019-04-04T15:21:17.304Z,33.86
2019-04-04T15:23:47.011Z,34.31
2019-04-04T15:26:16.690Z,34.46
2019-04-04T15:28:46.369Z,34.21
2019-04-04T15:31:16.042Z,34.29
2019-04-04T15:33:45.748Z,34.57
2019-04-04T15:36:15.322Z,34.87
2019-04-04T15:38:44.958Z,35.06
2019-04-04T15:41:14.589Z,35.33
2019-04-04T15:43:44.188Z,35.64
2019-04-04T15:46:14.001Z,35.94
2019-04-04T15:48:43.642Z,35.63
2019-04-04T15:51:13.291Z,35.69
2019-04-04T15:53:42.922Z,35.92
2019-04-04T15:56:12.810Z,36.09
2019-04-04T15:58:42.377Z,35.96
2019-04-04T16:01:11.981Z,36.20
2019-04-04T16:03:41.734Z,36.09
2019-04-04T16:06:11.567Z,36.14
2019-04-04T16:08:41.461Z,36.31
2019-04-04T16:11:11.056Z,36.45
2019-04-04T16:13:40.794Z,36.25
2019-04-04T16:16:10.314Z,36.33
2019-04-04T16:18:39.967Z,36.61
2019-04-04T16:21:09.576Z,36.63
2019-04-04T16:23:39.206Z,37.05
2019-04-04T16:26:08.925Z,36.93
2019-04-04T16:28:38.479Z,37.25
2019-04-04T16:31:08.467Z,37.41
2019-04-04T16:33:38.079Z,37.87
2019-04-04T16:36:07.811Z,38.29
2019-04-04T16:38:37.245Z,39.10
2019-04-04T16:41:06.854Z,39.40
2019-04-04T16:43:36.635Z,39.42
2019-04-04T16:46:06.547Z,39.59
2019-04-04T16:48:36.462Z,39.86
2019-04-04T16:51:06.314Z,40.15
2019-04-04T16:53:36.049Z,40.38
2019-04-04T16:56:05.795Z,40.34
2019-04-04T16:58:36.950Z,40.55
2019-04-04T17:01:06.770Z,40.68
2019-04-04T17:03:36.605Z,40.83
2019-04-04T17:06:06.239Z,40.75
2019-04-04T17:08:35.763Z,41.01
2019-04-04T17:11:05.564Z,41.16
2019-04-04T17:13:35.295Z,41.52
2019-04-04T17:16:05.133Z,41.73
2019-04-04T17:18:34.836Z,42.44
2019-04-04T17:21:04.656Z,42.68
2019-04-04T17:23:34.339Z,43.01
2019-04-04T17:26:04.176Z,43.23
2019-04-04T17:28:34.127Z,43.38
2019-04-04T17:31:06.671Z,43.61
2019-04-04T17:33:35.025Z,43.74
2019-04-04T17:36:04.923Z,43.66
2019-04-04T17:38:34.634Z,43.79
2019-04-04T17:41:04.430Z,44.07
2019-04-04T17:43:34.551Z,44.35
2019-04-04T17:46:04.488Z,44.48
2019-04-04T17:48:34.623Z,44.66
2019-04-04T17:51:04.325Z,44.82
2019-04-04T17:53:34.191Z,44.91
2019-04-04T17:56:04.234Z,44.90
2019-04-04T17:58:33.848Z,45.08
2019-04-04T18:01:05.367Z,45.11
2019-04-04T18:03:34.977Z,45.30
2019-04-04T18:06:04.756Z,45.40
2019-04-04T18:08:34.389Z,45.49
2019-04-04T18:11:04.167Z,45.57
2019-04-04T18:13:33.839Z,45.53
2019-04-04T18:16:03.584Z,45.31
2019-04-04T18:18:33.229Z,45.36
2019-04-04T18:21:02.824Z,45.31
2019-04-04T18:23:32.424Z,45.43
2019-04-04T18:26:03.371Z,45.23
2019-04-04T18:28:33.265Z,45.24
2019-04-04T18:31:03.033Z,45.38
2019-04-04T18:33:32.724Z,45.40
2019-04-04T18:36:02.361Z,45.19
2019-04-04T18:38:32.116Z,45.34
2019-04-04T18:41:01.795Z,45.47
2019-04-04T18:43:31.511Z,45.82
2019-04-04T18:46:01.037Z,46.04
2019-04-04T18:48:30.775Z,46.31
2019-04-04T18:51:00.484Z,46.26
2019-04-04T18:53:30.124Z,46.27
2019-04-04T18:55:59.740Z,46.28
2019-04-04T18:58:29.414Z,46.34
2019-04-04T19:01:01.115Z,46.36
2019-04-04T19:03:30.664Z,46.50
2019-04-04T19:06:00.402Z,46.57
2019-04-04T19:08:30.178Z,46.81
2019-04-04T19:10:59.837Z,46.86
2019-04-04T19:13:29.593Z,47.00
2019-04-04T19:15:59.502Z,47.17
2019-04-04T19:18:29.241Z,47.44
2019-04-04T19:20:58.916Z,47.54
2019-04-04T19:23:28.617Z,47.54
2019-04-04T19:25:58.408Z,47.85
2019-04-04T19:28:28.126Z,47.96
2019-04-04T19:30:58.688Z,47.80
2019-04-04T19:33:28.516Z,47.79
2019-04-04T19:35:58.149Z,47.80
2019-04-04T19:38:27.827Z,48.24
2019-04-04T19:40:57.518Z,48.16
2019-04-04T19:43:27.179Z,48.34
2019-04-04T19:45:57.220Z,48.74
2019-04-04T19:48:26.915Z,48.56
2019-04-04T19:50:56.471Z,48.92
2019-04-04T19:53:26.241Z,48.92
2019-04-04T19:55:55.871Z,48.79
2019-04-04T19:58:25.436Z,49.08
2019-04-04T20:00:55.377Z,48.97
2019-04-04T20:03:25.062Z,49.41
2019-04-04T20:05:54.717Z,49.23
2019-04-04T20:08:24.443Z,49.31
2019-04-04T20:10:54.330Z,49.30
2019-04-04T20:13:30.831Z,49.26
2019-04-04T20:15:55.383Z,49.16
2019-04-04T20:18:24.830Z,49.25
2019-04-04T20:20:54.526Z,49.42
2019-04-04T20:23:24.289Z,49.37
2019-04-04T20:25:54.008Z,49.49
2019-04-04T20:28:23.692Z,49.50
2019-04-04T20:30:53.322Z,49.25
2019-04-04T20:33:22.932Z,49.27
2019-04-04T20:35:52.828Z,49.27
2019-04-04T20:38:22.328Z,49.37
2019-04-04T20:40:52.027Z,49.37
2019-04-04T20:43:21.653Z,49.38
2019-04-04T20:45:51.514Z,49.51
2019-04-04T20:48:21.145Z,49.48
2019-04-04T20:50:50.774Z,49.53
2019-04-04T20:53:22.103Z,49.59
2019-04-04T20:55:51.658Z,49.63
2019-04-04T20:58:21.370Z,49.74
2019-04-04T21:00:50.966Z,49.88
2019-04-04T21:03:20.627Z,49.59
2019-04-04T21:05:50.275Z,49.65
2019-04-04T21:08:19.978Z,49.63
2019-04-04T21:10:49.758Z,49.50
2019-04-04T21:13:19.544Z,49.54
2019-04-04T21:15:49.051Z,49.97
2019-04-04T21:18:18.588Z,50.22
2019-04-04T21:20:48.206Z,50.16
2019-04-04T21:23:17.814Z,50.03
2019-04-04T21:25:47.452Z,50.16
2019-04-04T21:28:17.075Z,50.15
2019-04-04T21:30:47.007Z,50.46
2019-04-04T21:33:16.588Z,50.80
2019-04-04T21:35:46.169Z,50.80
2019-04-04T21:38:15.590Z,50.84
2019-04-04T21:40:45.265Z,50.93
2019-04-04T21:43:14.952Z,51.08
2019-04-04T21:45:44.602Z,51.32
2019-04-04T21:48:14.235Z,51.42
2019-04-04T21:50:43.897Z,51.53
2019-04-04T21:53:13.704Z,51.49
2019-04-04T21:55:43.450Z,51.44
2019-04-04T21:58:13.099Z,51.51
2019-04-04T22:00:43.862Z,51.61
2019-04-04T22:03:13.603Z,51.77
2019-04-04T22:05:43.753Z,51.52
2019-04-04T22:08:13.576Z,51.72
2019-04-04T22:10:43.359Z,51.72
2019-04-04T22:13:13.063Z,51.74
2019-04-04T22:15:42.965Z,51.20
2019-04-04T22:18:12.635Z,51.20
2019-04-04T22:20:42.830Z,51.88
2019-04-04T22:23:12.554Z,51.33
2019-04-04T22:25:42.187Z,51.19
2019-04-04T22:28:11.808Z,51.40
2019-04-04T22:30:41.436Z,51.40
2019-04-04T22:33:11.112Z,51.60
2019-04-04T22:35:40.676Z,52.15
2019-04-04T22:38:10.367Z,52.15
2019-04-04T22:40:40.071Z,52.72
2019-04-04T22:43:09.705Z,52.86
2019-04-04T22:45:39.383Z,52.74
2019-04-04T22:48:09.166Z,52.74
2019-04-04T22:50:38.639Z,52.79
2019-04-04T22:53:08.317Z,53.45
2019-04-04T22:55:38.072Z,52.92
2019-04-04T22:58:07.728Z,52.92
2019-04-04T23:00:37.513Z,52.73
2019-04-04T23:03:07.406Z,52.60
2019-04-04T23:05:37.151Z,52.60
2019-04-04T23:08:07.657Z,52.48
2019-04-04T23:10:37.311Z,52.48
2019-04-04T23:13:06.930Z,52.97
2019-04-04T23:15:36.670Z,52.67
2019-04-04T23:18:06.387Z,53.18
2019-04-04T23:20:36.027Z,53.43
2019-04-04T23:23:05.644Z,53.57
2019-04-04T23:25:35.356Z,53.81
2019-04-04T23:28:04.883Z,54.15
2019-04-04T23:30:34.582Z,54.15
2019-04-04T23:33:04.093Z,54.22
2019-04-04T23:35:33.756Z,54.87
2019-04-04T23:38:03.620Z,55.50
2019-04-04T23:40:33.365Z,55.50
2019-04-04T23:43:03.031Z,55.72
2019-04-04T23:45:32.622Z,54.92
2019-04-04T23:48:02.347Z,54.92
2019-04-04T23:50:31.776Z,55.70
2019-04-04T23:53:01.652Z,55.84
2019-04-04T23:55:31.237Z,56.03
2019-04-04T23:58:00.957Z,56.15
